Avoca, Wisconsin
Current Conditions -  °F | °C
As of 1:56 PM on Friday 21 Nov 2014 (Local Time) from KLNR Reporting Station
Clear Clear  
Wind Chill: 24°   Ceiling: Unl
Heat Index: 33°   Visibility: 10mi
Dew Point:   Wind: 13mph
Humidity: 35%   Direction: 200°SSW
Pressure: 30.26"   Gusts: NA
Location:  43.18°N, 90.32°W
Report Text: KLNR 211956Z AUTO 20011KT 10SM CLR 01/M13 A3026 RMK AO2 SLP257 T00061133
Loading
Personal Weather Stations






























Interactive Weather Map New forecast layout! Learn more

10-Day Weather Forecast

Advertisements
Track Severe Weather on mobile